createdAt,value
2023-01-31T00:00:29.218Z,-1.58
2023-01-31T00:03:36.481Z,-1.55
2023-01-31T00:06:51.364Z,-1.62
2023-01-31T00:09:58.184Z,-1.58
2023-01-31T00:13:14.756Z,-1.61
2023-01-31T00:16:24.408Z,-1.55
2023-01-31T00:19:30.306Z,-1.56
2023-01-31T00:22:37.267Z,-1.50
2023-01-31T00:25:43.111Z,-1.48
2023-01-31T00:28:57.824Z,-1.44
2023-01-31T00:32:04.515Z,-1.50
2023-01-31T00:35:12.384Z,-1.49
2023-01-31T00:38:18.217Z,-1.44
2023-01-31T00:41:29.263Z,-1.42
2023-01-31T00:44:37.901Z,-1.43
2023-01-31T00:47:44.594Z,-1.30
2023-01-31T00:50:50.683Z,-1.24
2023-01-31T00:53:58.490Z,-1.20
2023-01-31T00:57:04.449Z,-1.21
2023-01-31T01:00:32.651Z,-1.16
2023-01-31T01:03:46.805Z,-1.19
2023-01-31T01:06:53.679Z,-1.18
2023-01-31T01:10:00.063Z,-1.15
2023-01-31T01:13:24.138Z,-1.15
2023-01-31T01:16:39.857Z,-1.11
2023-01-31T01:19:46.707Z,-1.11
2023-01-31T01:22:52.775Z,-1.16
2023-01-31T01:25:59.366Z,-0.97
2023-01-31T01:29:08.022Z,-1.06
2023-01-31T01:32:17.391Z,-0.99
2023-01-31T01:35:23.252Z,-0.92
2023-01-31T01:38:30.374Z,-0.89
2023-01-31T01:41:37.098Z,-0.98
2023-01-31T01:44:53.603Z,-0.88
2023-01-31T01:48:11.513Z,-0.78
2023-01-31T01:51:22.268Z,-0.80
2023-01-31T01:54:38.967Z,-0.75
2023-01-31T01:57:53.365Z,-0.79
2023-01-31T02:00:59.817Z,-0.81
2023-01-31T02:04:17.574Z,-0.86
2023-01-31T02:07:23.920Z,-0.92
2023-01-31T02:10:40.014Z,-0.95
2023-01-31T02:13:50.298Z,-0.98
2023-01-31T02:16:56.903Z,-1.20
2023-01-31T02:20:38.385Z,-1.34
2023-01-31T02:24:28.548Z,-1.32
2023-01-31T02:28:40.349Z,-1.15
2023-01-31T02:32:40.721Z,-1.35
2023-01-31T02:36:07.598Z,-1.28
2023-01-31T02:39:32.445Z,-1.46
2023-01-31T02:42:52.199Z,-1.54
2023-01-31T02:46:17.702Z,-1.32
2023-01-31T02:49:41.344Z,-1.21
2023-01-31T02:53:03.128Z,-1.04
2023-01-31T02:56:20.372Z,-1.01
2023-01-31T02:59:32.203Z,-1.11
2023-01-31T03:02:38.123Z,-1.01
2023-01-31T03:05:47.430Z,-0.99
2023-01-31T03:09:02.627Z,-1.31
2023-01-31T03:12:39.110Z,-1.19
2023-01-31T03:16:15.745Z,-1.11
2023-01-31T03:19:31.128Z,-0.93
2023-01-31T03:22:46.176Z,-0.87
2023-01-31T03:25:54.529Z,-1.31
2023-01-31T03:29:05.880Z,-1.70
2023-01-31T03:32:23.581Z,-1.98
2023-01-31T03:35:38.404Z,-2.38
2023-01-31T03:39:03.351Z,-2.56
2023-01-31T03:42:18.586Z,-2.57
2023-01-31T03:45:37.842Z,-2.58
2023-01-31T03:48:52.648Z,-2.64
2023-01-31T03:52:11.507Z,-2.70
2023-01-31T03:55:31.408Z,-2.39
2023-01-31T03:58:48.803Z,-2.36
2023-01-31T04:02:08.887Z,-2.52
2023-01-31T04:05:22.175Z,-2.57
2023-01-31T04:08:34.445Z,-2.33
2023-01-31T04:11:53.542Z,-2.16
2023-01-31T04:15:03.428Z,-2.24
2023-01-31T04:18:10.081Z,-2.20
2023-01-31T04:21:17.639Z,-2.16
2023-01-31T04:24:24.346Z,-2.10
2023-01-31T04:27:33.320Z,-2.16
2023-01-31T04:30:41.167Z,-2.14
2023-01-31T04:33:47.411Z,-2.02
2023-01-31T04:36:58.020Z,-1.97
2023-01-31T04:40:03.814Z,-2.00
2023-01-31T04:43:21.141Z,-1.95
2023-01-31T04:46:26.988Z,-1.86
2023-01-31T04:49:33.685Z,-1.89
2023-01-31T04:52:39.465Z,-1.82
2023-01-31T04:55:46.092Z,-1.73
2023-01-31T04:58:54.458Z,-1.75
2023-01-31T05:02:01.112Z,-1.72
2023-01-31T05:05:08.285Z,-1.60
2023-01-31T05:08:14.901Z,-1.62
2023-01-31T05:11:21.819Z,-1.63
2023-01-31T05:14:31.477Z,-1.51
2023-01-31T05:17:37.525Z,-1.53
2023-01-31T05:20:44.418Z,-1.54
2023-01-31T05:23:50.368Z,-1.61
2023-01-31T05:26:58.838Z,-1.65
2023-01-31T05:30:10.159Z,-1.87
2023-01-31T05:33:17.159Z,-1.93
2023-01-31T05:36:22.888Z,-2.04
2023-01-31T05:39:31.256Z,-1.97
2023-01-31T05:42:37.251Z,-1.98
2023-01-31T05:45:46.773Z,-2.05
2023-01-31T05:48:52.558Z,-1.98
2023-01-31T05:52:02.371Z,-2.05
2023-01-31T05:55:18.617Z,-1.97
2023-01-31T05:58:25.872Z,-2.02
2023-01-31T06:01:40.831Z,-1.94
2023-01-31T06:04:47.639Z,-1.86
2023-01-31T06:07:53.500Z,-1.88
2023-01-31T06:11:00.057Z,-1.83
2023-01-31T06:14:06.843Z,-1.84
2023-01-31T06:17:19.054Z,-1.79
2023-01-31T06:20:24.818Z,-1.72
2023-01-31T06:23:31.998Z,-1.74
2023-01-31T06:26:37.905Z,-1.70
2023-01-31T06:29:44.584Z,-1.73
2023-01-31T06:32:53.123Z,-1.75
2023-01-31T06:36:03.029Z,-1.78
2023-01-31T06:39:09.281Z,-1.65
2023-01-31T06:42:15.867Z,-1.63
2023-01-31T06:45:21.959Z,-1.62
2023-01-31T06:48:31.666Z,-1.61
2023-01-31T06:51:37.537Z,-1.58
2023-01-31T06:54:44.158Z,-1.62
2023-01-31T06:57:51.756Z,-1.60
2023-01-31T07:00:58.971Z,-1.48
2023-01-31T07:04:07.457Z,-1.49
2023-01-31T07:07:14.049Z,-1.52
2023-01-31T07:10:20.918Z,-1.43
2023-01-31T07:13:28.683Z,-1.46
2023-01-31T07:16:34.923Z,-1.43
2023-01-31T07:19:45.590Z,-1.30
2023-01-31T07:22:58.602Z,-1.25
2023-01-31T07:26:08.105Z,-1.13
2023-01-31T07:29:15.292Z,-1.21
2023-01-31T07:32:25.043Z,-1.21
2023-01-31T07:35:34.108Z,-1.24
2023-01-31T07:38:40.715Z,-1.22
2023-01-31T07:41:46.732Z,-1.19
2023-01-31T07:44:53.694Z,-1.22
2023-01-31T07:48:01.915Z,-1.20
2023-01-31T07:51:11.929Z,-1.07
2023-01-31T07:54:18.843Z,-1.10
2023-01-31T07:57:29.750Z,-0.91
2023-01-31T08:00:48.401Z,-0.96
2023-01-31T08:03:55.736Z,-1.15
2023-01-31T08:07:06.375Z,-0.98
2023-01-31T08:10:17.497Z,-0.98
2023-01-31T08:13:23.277Z,-0.95
2023-01-31T08:16:32.149Z,-1.02
2023-01-31T08:19:48.270Z,-1.11
2023-01-31T08:23:00.082Z,-0.85
2023-01-31T08:26:09.997Z,-0.93
2023-01-31T08:29:16.718Z,-0.72
2023-01-31T08:32:22.555Z,-0.76
2023-01-31T08:35:30.408Z,-0.63
2023-01-31T08:38:42.997Z,-0.73
2023-01-31T08:41:49.673Z,-0.62
2023-01-31T08:44:56.454Z,-0.62
2023-01-31T08:48:04.076Z,-0.58
2023-01-31T08:51:13.086Z,-0.57
2023-01-31T08:54:22.257Z,-0.54
2023-01-31T08:57:28.203Z,-0.51
2023-01-31T09:00:35.886Z,-0.42
2023-01-31T09:03:44.732Z,-0.43
2023-01-31T09:06:52.083Z,-0.41
2023-01-31T09:10:00.439Z,-0.48
2023-01-31T09:13:10.647Z,-0.43
2023-01-31T09:16:18.157Z,-0.51
2023-01-31T09:19:25.576Z,-0.40
2023-01-31T09:22:36.952Z,-0.31
2023-01-31T09:25:47.914Z,-0.32
2023-01-31T09:28:54.094Z,-0.34
2023-01-31T09:32:00.973Z,-0.33
2023-01-31T09:35:14.119Z,-0.41
2023-01-31T09:38:20.936Z,-0.27
2023-01-31T09:41:39.137Z,-0.17
2023-01-31T09:44:59.716Z,-0.07
2023-01-31T09:48:10.108Z,-0.23
2023-01-31T09:51:20.013Z,-0.25
2023-01-31T09:54:40.674Z,-0.28
2023-01-31T09:58:08.107Z,-0.27
2023-01-31T10:01:26.577Z,0.07
2023-01-31T10:05:07.795Z,0.24
2023-01-31T10:08:36.566Z,0.09
2023-01-31T10:11:52.202Z,0.05
2023-01-31T10:15:07.183Z,0.21
2023-01-31T10:18:26.122Z,0.22
2023-01-31T10:21:42.003Z,0.08
2023-01-31T10:25:00.012Z,0.01
2023-01-31T10:28:37.210Z,0.11
2023-01-31T10:31:54.574Z,0.07
2023-01-31T10:35:13.055Z,0.21
2023-01-31T10:38:31.407Z,0.50
2023-01-31T10:42:08.256Z,0.46
2023-01-31T10:45:22.494Z,0.42
2023-01-31T10:48:33.963Z,0.48
2023-01-31T10:52:06.907Z,0.60
2023-01-31T10:55:55.354Z,0.30
2023-01-31T10:59:08.034Z,0.52
2023-01-31T11:02:25.529Z,0.79
2023-01-31T11:05:52.285Z,0.77
2023-01-31T11:09:02.690Z,0.63
2023-01-31T11:12:11.697Z,0.66
2023-01-31T11:15:26.267Z,0.64
2023-01-31T11:18:47.911Z,0.70
2023-01-31T11:22:04.916Z,0.43
2023-01-31T11:25:25.472Z,0.48
2023-01-31T11:28:40.282Z,0.37
2023-01-31T11:31:50.887Z,0.32
2023-01-31T11:35:06.607Z,0.31
2023-01-31T11:38:27.969Z,0.20
2023-01-31T11:41:38.216Z,0.34
2023-01-31T11:44:59.930Z,0.36
2023-01-31T11:48:19.643Z,0.33
2023-01-31T11:51:34.232Z,0.30
2023-01-31T11:54:52.381Z,0.39
2023-01-31T11:58:04.845Z,0.58
2023-01-31T12:01:20.982Z,0.51
2023-01-31T12:04:38.116Z,0.72
2023-01-31T12:07:58.805Z,0.85
2023-01-31T12:11:32.153Z,0.98
2023-01-31T12:14:45.028Z,0.99
2023-01-31T12:17:53.997Z,0.88
2023-01-31T12:21:17.966Z,0.77
2023-01-31T12:24:43.797Z,0.99
2023-01-31T12:28:19.558Z,1.05
2023-01-31T12:31:52.795Z,0.99
2023-01-31T12:35:35.593Z,1.18
2023-01-31T12:39:02.153Z,1.13
2023-01-31T12:42:36.035Z,1.07
2023-01-31T12:46:09.918Z,1.09
2023-01-31T12:49:52.245Z,0.92
2023-01-31T12:53:41.296Z,0.83
2023-01-31T12:57:07.828Z,0.82
2023-01-31T13:00:40.364Z,0.84
2023-01-31T13:04:19.823Z,0.87
2023-01-31T13:07:41.762Z,1.20
2023-01-31T13:10:56.099Z,1.06
2023-01-31T13:14:08.934Z,1.12
2023-01-31T13:17:21.335Z,1.04
2023-01-31T13:20:43.011Z,0.80
2023-01-31T13:23:57.027Z,0.55
2023-01-31T13:27:14.655Z,0.52
2023-01-31T13:30:34.209Z,0.54
2023-01-31T13:33:54.014Z,0.55
2023-01-31T13:37:12.494Z,0.58
2023-01-31T13:40:25.608Z,0.55
2023-01-31T13:43:31.440Z,0.49
2023-01-31T13:46:53.941Z,0.36
2023-01-31T13:50:07.543Z,0.35
2023-01-31T13:53:29.531Z,0.26
2023-01-31T13:56:41.521Z,0.12
2023-01-31T13:59:59.441Z,0.11
2023-01-31T14:03:08.863Z,-0.10
2023-01-31T14:06:15.618Z,-0.06
2023-01-31T14:09:31.097Z,-0.01
2023-01-31T14:12:41.224Z,0.05
2023-01-31T14:15:53.680Z,-0.01
2023-01-31T14:19:00.570Z,-0.12
2023-01-31T14:22:19.404Z,-0.24
2023-01-31T14:25:45.732Z,-0.35
2023-01-31T14:28:51.709Z,-0.29
2023-01-31T14:32:02.255Z,-0.27
2023-01-31T14:35:49.308Z,-0.25
2023-01-31T14:39:54.558Z,-0.17
2023-01-31T14:43:39.048Z,-0.26
2023-01-31T14:47:17.201Z,-0.24
2023-01-31T14:50:50.215Z,-0.28
2023-01-31T14:54:38.957Z,-0.37
2023-01-31T14:57:50.877Z,-0.46
2023-01-31T15:01:04.348Z,-0.60
2023-01-31T15:04:10.352Z,-0.60
2023-01-31T15:07:20.539Z,-0.55
2023-01-31T15:10:58.475Z,-0.77
2023-01-31T15:14:34.366Z,-1.01
2023-01-31T15:17:58.084Z,-0.92
2023-01-31T15:21:18.387Z,-0.96
2023-01-31T15:24:35.660Z,-1.12
2023-01-31T15:27:47.718Z,-1.10
2023-01-31T15:30:57.783Z,-1.17
2023-01-31T15:34:23.041Z,-1.27
2023-01-31T15:37:37.268Z,-1.33
2023-01-31T15:40:44.035Z,-1.31
2023-01-31T15:43:51.912Z,-1.26
2023-01-31T15:47:03.789Z,-1.33
2023-01-31T15:50:23.289Z,-1.39
2023-01-31T15:53:33.242Z,-1.55
2023-01-31T15:56:46.770Z,-1.68
2023-01-31T15:59:53.816Z,-1.68
2023-01-31T16:03:07.023Z,-1.90
2023-01-31T16:06:29.003Z,-2.00
2023-01-31T16:09:39.191Z,-2.02
2023-01-31T16:12:51.986Z,-2.02
2023-01-31T16:15:58.710Z,-2.05
2023-01-31T16:19:10.565Z,-2.00
2023-01-31T16:22:32.408Z,-1.96
2023-01-31T16:25:40.224Z,-1.88
2023-01-31T16:28:53.915Z,-1.86
2023-01-31T16:32:00.955Z,-1.75
2023-01-31T16:35:11.628Z,-1.83
2023-01-31T16:38:29.975Z,-1.69
2023-01-31T16:41:50.794Z,-1.73
2023-01-31T16:44:57.410Z,-1.81
2023-01-31T16:48:34.389Z,-1.93
2023-01-31T16:51:49.552Z,-1.81
2023-01-31T16:55:08.438Z,-1.82
2023-01-31T16:58:53.114Z,-1.82
2023-01-31T17:02:07.192Z,-1.77
2023-01-31T17:05:26.318Z,-1.75
2023-01-31T17:08:32.441Z,-1.82
2023-01-31T17:11:43.959Z,-1.86
2023-01-31T17:14:50.224Z,-1.86
2023-01-31T17:17:58.894Z,-1.92
2023-01-31T17:21:04.682Z,-1.91
2023-01-31T17:24:17.981Z,-1.98
2023-01-31T17:27:26.499Z,-1.99
2023-01-31T17:30:33.812Z,-2.00
2023-01-31T17:33:39.620Z,-2.00
2023-01-31T17:36:49.373Z,-2.05
2023-01-31T17:39:55.137Z,-1.97
2023-01-31T17:43:07.353Z,-2.02
2023-01-31T17:46:19.317Z,-1.94
2023-01-31T17:49:26.412Z,-2.08
2023-01-31T17:52:32.271Z,-2.05
2023-01-31T17:55:45.754Z,-2.06
2023-01-31T17:58:54.585Z,-1.99
2023-01-31T18:02:03.126Z,-1.95
2023-01-31T18:05:09.917Z,-2.03
2023-01-31T18:08:17.797Z,-2.05
2023-01-31T18:11:26.017Z,-2.01
2023-01-31T18:14:39.007Z,-1.96
2023-01-31T18:17:45.670Z,-2.05
2023-01-31T18:20:52.317Z,-2.02
2023-01-31T18:24:08.419Z,-2.04
2023-01-31T18:27:33.565Z,-2.03
2023-01-31T18:30:45.469Z,-2.06
2023-01-31T18:33:52.270Z,-2.08
2023-01-31T18:36:58.239Z,-2.08
2023-01-31T18:40:19.490Z,-2.03
2023-01-31T18:43:26.734Z,-2.01
2023-01-31T18:46:35.958Z,-2.04
2023-01-31T18:49:45.923Z,-2.04
2023-01-31T18:52:52.534Z,-2.05
2023-01-31T18:56:05.694Z,-1.99
2023-01-31T18:59:12.530Z,-2.02
2023-01-31T19:02:21.112Z,-1.98
2023-01-31T19:05:28.612Z,-2.04
2023-01-31T19:08:35.396Z,-2.04
2023-01-31T19:11:43.700Z,-1.98
2023-01-31T19:14:49.676Z,-2.06
2023-01-31T19:17:58.888Z,-1.96
2023-01-31T19:21:05.034Z,-2.03
2023-01-31T19:24:17.172Z,-2.10
2023-01-31T19:27:23.421Z,-2.09
2023-01-31T19:30:30.113Z,-2.14
2023-01-31T19:33:39.401Z,-2.13
2023-01-31T19:36:50.370Z,-2.15
2023-01-31T19:39:56.240Z,-2.22
2023-01-31T19:43:05.018Z,-2.18
2023-01-31T19:46:13.275Z,-2.17
2023-01-31T19:49:23.378Z,-2.08
2023-01-31T19:52:36.538Z,-2.16
2023-01-31T19:55:43.214Z,-2.15
2023-01-31T19:59:00.749Z,-2.02
2023-01-31T20:02:07.378Z,-2.09
2023-01-31T20:05:19.177Z,-2.14
2023-01-31T20:08:29.152Z,-2.10
2023-01-31T20:11:36.905Z,-2.09
2023-01-31T20:14:43.639Z,-2.14
2023-01-31T20:17:49.430Z,-2.15
2023-01-31T20:20:59.110Z,-2.14
2023-01-31T20:24:05.215Z,-2.27
2023-01-31T20:27:11.823Z,-2.15
2023-01-31T20:30:20.175Z,-2.07
2023-01-31T20:33:26.930Z,-2.09
2023-01-31T20:36:35.366Z,-2.01
2023-01-31T20:39:44.477Z,-2.05
2023-01-31T20:42:50.570Z,-2.06
2023-01-31T20:46:06.568Z,-2.14
2023-01-31T20:49:12.571Z,-2.13
2023-01-31T20:52:24.462Z,-1.94
2023-01-31T20:55:34.317Z,-1.89
2023-01-31T20:58:44.084Z,-1.95
2023-01-31T21:01:50.066Z,-2.00
2023-01-31T21:05:12.097Z,-2.02
2023-01-31T21:08:20.760Z,-1.95
2023-01-31T21:11:27.854Z,-1.98
2023-01-31T21:14:33.634Z,-2.06
2023-01-31T21:17:40.833Z,-1.98
2023-01-31T21:20:49.349Z,-1.94
2023-01-31T21:24:08.990Z,-1.97
2023-01-31T21:27:17.364Z,-1.88
2023-01-31T21:30:36.352Z,-1.89
2023-01-31T21:33:42.304Z,-1.87
2023-01-31T21:36:49.060Z,-1.81
2023-01-31T21:39:57.847Z,-1.83
2023-01-31T21:43:04.397Z,-1.83
2023-01-31T21:46:12.501Z,-1.86
2023-01-31T21:49:19.529Z,-1.77
2023-01-31T21:52:25.361Z,-1.75
2023-01-31T21:55:34.500Z,-1.74
2023-01-31T21:58:42.380Z,-1.81
2023-01-31T22:01:51.790Z,-1.83
2023-01-31T22:04:57.744Z,-1.88
2023-01-31T22:08:04.374Z,-1.94
2023-01-31T22:11:19.170Z,-1.74
2023-01-31T22:14:26.246Z,-1.80
2023-01-31T22:17:31.926Z,-1.83
2023-01-31T22:20:40.672Z,-1.91
2023-01-31T22:23:51.089Z,-1.84
2023-01-31T22:27:00.357Z,-1.87
2023-01-31T22:30:16.069Z,-1.90
2023-01-31T22:33:22.863Z,-1.84
2023-01-31T22:36:28.717Z,-1.86
2023-01-31T22:39:35.269Z,-1.77
2023-01-31T22:42:43.653Z,-1.74
2023-01-31T22:45:53.758Z,-1.69
2023-01-31T22:49:00.368Z,-1.72
2023-01-31T22:52:07.388Z,-1.66
2023-01-31T22:55:16.431Z,-1.65
2023-01-31T22:58:25.904Z,-1.60
2023-01-31T23:01:35.272Z,-1.55
2023-01-31T23:04:42.165Z,-1.56
2023-01-31T23:07:47.933Z,-1.56
2023-01-31T23:10:54.539Z,-1.54
2023-01-31T23:14:03.307Z,-1.49
2023-01-31T23:17:28.376Z,-1.48
2023-01-31T23:20:38.809Z,-1.39
2023-01-31T23:23:46.813Z,-1.44
2023-01-31T23:26:54.567Z,-1.42
2023-01-31T23:30:03.795Z,-1.52
2023-01-31T23:33:11.520Z,-1.63
2023-01-31T23:36:18.145Z,-1.69
2023-01-31T23:39:23.830Z,-1.66
2023-01-31T23:42:30.964Z,-1.72
2023-01-31T23:45:40.753Z,-1.64
2023-01-31T23:48:47.413Z,-1.60
2023-01-31T23:51:55.671Z,-1.61
2023-01-31T23:55:08.475Z,-1.60
2023-01-31T23:58:28.711Z,-1.58
